Manville, Wyoming
Current Conditions -  °F | °C
As of 1:15 PM on Sunday 25 Jan 2015 (Local Time) from KGUR Reporting Station
Clear Clear  
Wind Chill: 62°   Ceiling: Unl
Heat Index: 62°   Visibility: 10mi
Dew Point: 33°   Wind: 12mph
Humidity: 34%   Direction: 270°W
Pressure: 30.07"   Gusts: 17mph
Location:  42.78°N, 104.62°W
Report Text: KGUR 252015Z AUTO 27010G15KT 10SM CLR 17/01 A3007 RMK AO2 T01650006
Loading
Personal Weather Stations






























Interactive Weather Map New forecast layout! Learn more

10-Day Weather Forecast

Advertisements
Track Severe Weather on mobile